Time;durP1;ratioP1;P1;durP2;ratioP2;P2;SDS_P1;SDS_P2;PMS_P1;PMS_P2;Temp;Humidity;BMP_temperature;BMP_pressure;BME280_temperature;BME280_humidity;BME280_pressure;Samples;Min_cycle;Max_cycle;Signal;HPM_P1;HPM_P2
2024/03/21 00:00:10;;;;;;;8.90;3.90;;;;;;;;;;5056112;28;20040;-76
2024/03/21 00:02:37;;;;;;;8.00;3.70;;;;;;;;;;5056090;28;20051;-75
2024/03/21 00:05:03;;;;;;;8.45;4.20;;;;;;;;;;5056054;28;20432;-76
2024/03/21 00:07:29;;;;;;;7.60;4.13;;;;;;;;;;5055388;28;20040;-76
2024/03/21 00:09:55;;;;;;;7.78;4.22;;;;;;;;;;5039391;28;20394;-75
2024/03/21 00:12:21;;;;;;;8.80;4.07;;;;;;;;;;5055701;28;20089;-75
2024/03/21 00:14:46;;;;;;;11.13;4.28;;;;;;;;;;5039459;28;20102;-75
2024/03/21 00:17:12;;;;;;;8.10;4.25;;;;;;;;;;5055328;28;20087;-75
2024/03/21 00:19:39;;;;;;;9.48;4.60;;;;;;;;;;5055686;28;20123;-75
2024/03/21 00:22:05;;;;;;;12.95;4.57;;;;;;;;;;5055476;28;20036;-74
2024/03/21 00:24:31;;;;;;;6.55;4.18;;;;;;;;;;5055944;28;20049;-77
2024/03/21 00:26:56;;;;;;;7.57;4.47;;;;;;;;;;5055442;28;20047;-75
2024/03/21 00:29:24;;;;;;;7.85;4.50;;;;;;;;;;5055244;28;20479;-76
2024/03/21 00:31:51;;;;;;;11.30;4.82;;;;;;;;;;5055551;28;20041;-76
2024/03/21 00:34:17;;;;;;;7.68;4.07;;;;;;;;;;5055083;28;20543;-75
2024/03/21 00:36:42;;;;;;;8.38;4.88;;;;;;;;;;5055609;28;20044;-77
2024/03/21 00:39:18;;;;;;;12.15;4.90;;;;;;;;;;5055033;28;20128;-75
2024/03/21 00:41:44;;;;;;;9.35;4.65;;;;;;;;;;5055492;28;20040;-76
2024/03/21 00:44:11;;;;;;;9.18;4.57;;;;;;;;;;5055152;28;20036;-75
2024/03/21 00:46:37;;;;;;;6.65;4.78;;;;;;;;;;5055433;28;20085;-75
2024/03/21 00:49:04;;;;;;;9.55;5.05;;;;;;;;;;5055406;28;20113;-77
2024/03/21 00:51:33;;;;;;;10.52;4.40;;;;;;;;;;5054989;28;20040;-77
2024/03/21 00:53:59;;;;;;;10.50;5.18;;;;;;;;;;5038463;28;20044;-75
2024/03/21 00:56:25;;;;;;;10.15;4.60;;;;;;;;;;5054910;28;20037;-75
2024/03/21 00:58:51;;;;;;;10.13;4.90;;;;;;;;;;5055230;28;20036;-75
2024/03/21 01:01:17;;;;;;;12.02;5.32;;;;;;;;;;5054769;28;20132;-76
2024/03/21 01:03:43;;;;;;;7.93;4.85;;;;;;;;;;5055027;28;20390;-75
2024/03/21 01:06:09;;;;;;;11.93;5.50;;;;;;;;;;5054606;28;20047;-76
2024/03/21 01:08:35;;;;;;;12.60;5.45;;;;;;;;;;5054939;28;21158;-75
2024/03/21 01:11:01;;;;;;;14.07;5.85;;;;;;;;;;5055259;28;20037;-76
2024/03/21 01:13:27;;;;;;;12.55;4.95;;;;;;;;;;5054852;28;20050;-75
2024/03/21 01:15:52;;;;;;;12.65;4.90;;;;;;;;;;5054875;28;20032;-77
2024/03/21 01:18:18;;;;;;;18.27;5.43;;;;;;;;;;5054399;28;20123;-76
2024/03/21 01:20:44;;;;;;;10.60;4.78;;;;;;;;;;5055073;28;20471;-77
2024/03/21 01:23:10;;;;;;;13.75;5.90;;;;;;;;;;5054482;28;20044;-76
2024/03/21 01:25:37;;;;;;;16.67;5.97;;;;;;;;;;5054709;28;20555;-76
2024/03/21 01:28:03;;;;;;;13.23;5.40;;;;;;;;;;5054938;28;20050;-76
2024/03/21 01:30:31;;;;;;;8.05;5.05;;;;;;;;;;5054434;28;20045;-76
2024/03/21 01:32:58;;;;;;;12.85;5.65;;;;;;;;;;5054767;28;20085;-76
2024/03/21 01:35:25;;;;;;;14.25;5.85;;;;;;;;;;5054711;28;20045;-76
2024/03/21 01:37:51;;;;;;;10.27;5.35;;;;;;;;;;5054641;28;20044;-76
2024/03/21 01:40:16;;;;;;;11.20;6.35;;;;;;;;;;5054342;28;20033;-77
2024/03/21 01:42:44;;;;;;;13.55;6.53;;;;;;;;;;5055113;28;20387;-77
2024/03/21 01:45:10;;;;;;;12.93;6.78;;;;;;;;;;5053999;28;20045;-77
2024/03/21 01:47:36;;;;;;;18.13;6.72;;;;;;;;;;5054883;28;20043;-77
2024/03/21 01:50:03;;;;;;;12.60;6.50;;;;;;;;;;5054684;28;20436;-76
2024/03/21 01:52:29;;;;;;;13.88;6.00;;;;;;;;;;5054194;28;20044;-76
2024/03/21 01:54:56;;;;;;;13.98;6.85;;;;;;;;;;5054608;28;20045;-77
2024/03/21 01:57:23;;;;;;;13.27;6.78;;;;;;;;;;5054198;28;20051;-75
2024/03/21 01:59:49;;;;;;;13.98;7.57;;;;;;;;;;5054562;28;20047;-76
2024/03/21 02:02:15;;;;;;;19.55;6.95;;;;;;;;;;5053970;28;20041;-76
2024/03/21 02:04:41;;;;;;;13.15;6.95;;;;;;;;;;5054604;28;20045;-75
2024/03/21 02:07:09;;;;;;;13.20;6.60;;;;;;;;;;5055907;28;20039;-76
2024/03/21 02:09:35;;;;;;;15.68;7.25;;;;;;;;;;5058205;28;20041;-76
2024/03/21 02:12:06;;;;;;;16.38;7.18;;;;;;;;;;5058384;28;20062;-75
2024/03/21 02:14:34;;;;;;;15.82;7.32;;;;;;;;;;5057914;28;20395;-76
2024/03/21 02:17:00;;;;;;;13.82;7.63;;;;;;;;;;5058165;28;20475;-76
2024/03/21 02:19:26;;;;;;;16.85;7.57;;;;;;;;;;5057728;28;20047;-76
2024/03/21 02:24:36;;;;;;;15.63;8.05;;;;;;;;;;5058197;28;20044;-75
2024/03/21 02:27:02;;;;;;;15.13;7.65;;;;;;;;;;5057840;28;20048;-76
2024/03/21 02:29:28;;;;;;;15.80;7.88;;;;;;;;;;5040880;28;20677;-75
2024/03/21 02:31:53;;;;;;;21.02;8.23;;;;;;;;;;5057971;28;20510;-76
2024/03/21 02:34:19;;;;;;;21.60;7.65;;;;;;;;;;5057308;28;20055;-75
2024/03/21 02:36:45;;;;;;;18.42;7.47;;;;;;;;;;5057928;28;20040;-76
2024/03/21 02:39:10;;;;;;;15.07;7.80;;;;;;;;;;5057205;28;20049;-75
2024/03/21 02:41:36;;;;;;;13.85;7.38;;;;;;;;;;5057681;28;20127;-75
2024/03/21 02:44:02;;;;;;;15.57;7.20;;;;;;;;;;5041102;28;20499;-77
2024/03/21 02:46:28;;;;;;;12.20;7.45;;;;;;;;;;5057272;28;20045;-76
2024/03/21 02:48:54;;;;;;;21.25;8.45;;;;;;;;;;5057449;28;20047;-76
2024/03/21 02:51:23;;;;;;;16.55;8.63;;;;;;;;;;5056977;28;20036;-76
2024/03/21 02:53:50;;;;;;;17.38;9.10;;;;;;;;;;5057376;28;20109;-76
2024/03/21 02:56:17;;;;;;;21.33;10.05;;;;;;;;;;5056891;28;20041;-75
2024/03/21 02:58:42;;;;;;;20.05;10.10;;;;;;;;;;5057491;28;20040;-75
2024/03/21 03:01:08;;;;;;;27.38;12.25;;;;;;;;;;5056953;28;20068;-75
2024/03/21 03:03:34;;;;;;;25.80;11.82;;;;;;;;;;5057203;28;20045;-76
2024/03/21 03:06:00;;;;;;;26.90;12.25;;;;;;;;;;5057410;28;20045;-76
2024/03/21 03:08:25;;;;;;;20.65;10.20;;;;;;;;;;5056711;28;20040;-76
2024/03/21 03:10:51;;;;;;;22.67;10.88;;;;;;;;;;5057198;28;20123;-75
2024/03/21 03:13:17;;;;;;;21.83;9.40;;;;;;;;;;5040200;28;20037;-76
2024/03/21 03:15:43;;;;;;;29.90;10.07;;;;;;;;;;5056962;28;20089;-75
2024/03/21 03:18:08;;;;;;;19.42;8.65;;;;;;;;;;5056586;28;20074;-76
2024/03/21 03:20:34;;;;;;;17.98;8.02;;;;;;;;;;5056936;28;20048;-76
2024/03/21 03:23:00;;;;;;;24.85;8.05;;;;;;;;;;5057051;28;20066;-75
2024/03/21 03:25:26;;;;;;;16.42;7.07;;;;;;;;;;5056421;28;20044;-76
2024/03/21 03:27:54;;;;;;;15.38;8.45;;;;;;;;;;5056737;28;20072;-75
2024/03/21 03:30:20;;;;;;;16.67;8.17;;;;;;;;;;5056372;28;20045;-75
2024/03/21 03:32:58;;;;;;;18.25;9.23;;;;;;;;;;5056675;28;20045;-75
2024/03/21 03:35:40;;;;;;;17.75;7.95;;;;;;;;;;5056478;28;20079;-77
2024/03/21 03:38:08;;;;;;;20.25;8.60;;;;;;;;;;5056429;28;20041;-76
2024/03/21 03:40:34;;;;;;;17.23;7.70;;;;;;;;;;5056478;28;20348;-77
2024/03/21 03:43:00;;;;;;;18.13;8.57;;;;;;;;;;5056662;28;20043;-75
2024/03/21 03:45:26;;;;;;;15.75;8.05;;;;;;;;;;5056323;28;20439;-76
2024/03/21 03:47:52;;;;;;;19.45;8.95;;;;;;;;;;5056361;28;20046;-75
2024/03/21 03:50:18;;;;;;;16.95;7.78;;;;;;;;;;5056099;28;20390;-77
2024/03/21 03:52:44;;;;;;;13.05;7.78;;;;;;;;;;5056496;28;20059;-75
2024/03/21 03:55:09;;;;;;;18.83;8.02;;;;;;;;;;5055856;28;20482;-75
2024/03/21 03:57:35;;;;;;;14.45;8.02;;;;;;;;;;5056528;28;20470;-76
2024/03/21 04:00:02;;;;;;;16.67;7.47;;;;;;;;;;5039764;28;20519;-75
2024/03/21 04:02:29;;;;;;;14.82;7.97;;;;;;;;;;5055734;28;20057;-75
2024/03/21 04:04:55;;;;;;;15.73;7.50;;;;;;;;;;5056053;28;20036;-76
2024/03/21 04:07:21;;;;;;;14.32;7.20;;;;;;;;;;5055699;28;20043;-76
2024/03/21 04:09:47;;;;;;;14.93;7.80;;;;;;;;;;5055878;28;20413;-76
2024/03/21 04:12:13;;;;;;;13.18;7.55;;;;;;;;;;5055566;28;20036;-75
2024/03/21 04:14:39;;;;;;;15.07;7.75;;;;;;;;;;5056143;28;20105;-75
2024/03/21 04:17:05;;;;;;;15.23;7.88;;;;;;;;;;5055194;28;20047;-76
2024/03/21 04:19:31;;;;;;;16.38;6.70;;;;;;;;;;5055858;28;20044;-76
2024/03/21 04:21:56;;;;;;;13.13;6.43;;;;;;;;;;5039321;28;20093;-75
2024/03/21 04:24:23;;;;;;;11.98;6.55;;;;;;;;;;5055141;28;20463;-77
2024/03/21 04:26:48;;;;;;;11.07;6.50;;;;;;;;;;5055551;28;20421;-76
2024/03/21 04:29:14;;;;;;;11.50;6.18;;;;;;;;;;5054891;28;20131;-76
2024/03/21 04:31:40;;;;;;;16.48;6.45;;;;;;;;;;5055650;28;20049;-75
2024/03/21 04:34:10;;;;;;;12.40;6.72;;;;;;;;;;5055166;28;20036;-76
2024/03/21 04:36:36;;;;;;;12.23;7.15;;;;;;;;;;5055697;28;20051;-76
2024/03/21 04:39:01;;;;;;;12.60;5.95;;;;;;;;;;5055566;28;20128;-75
2024/03/21 04:41:27;;;;;;;12.68;6.75;;;;;;;;;;5054988;28;20068;-75
2024/03/21 04:43:53;;;;;;;11.45;5.95;;;;;;;;;;5055424;28;20048;-76
2024/03/21 04:46:18;;;;;;;11.32;6.55;;;;;;;;;;5054909;28;20455;-76
2024/03/21 04:48:44;;;;;;;12.93;6.32;;;;;;;;;;5055335;28;20071;-76
2024/03/21 04:51:10;;;;;;;11.10;6.32;;;;;;;;;;5055022;28;20085;-76
2024/03/21 04:53:36;;;;;;;12.15;6.38;;;;;;;;;;5055136;28;20471;-76
2024/03/21 04:56:03;;;;;;;13.63;6.75;;;;;;;;;;5055362;28;20067;-75
2024/03/21 04:58:29;;;;;;;13.03;7.87;;;;;;;;;;5054966;28;20049;-75
2024/03/21 05:00:55;;;;;;;14.77;8.00;;;;;;;;;;5055053;28;20109;-76
2024/03/21 05:03:21;;;;;;;17.08;8.70;;;;;;;;;;5054648;28;20049;-75
2024/03/21 05:05:46;;;;;;;16.63;8.40;;;;;;;;;;5055020;28;20044;-75
2024/03/21 05:08:12;;;;;;;15.13;8.45;;;;;;;;;;5054385;28;20040;-77
2024/03/21 05:10:38;;;;;;;16.15;9.25;;;;;;;;;;5055348;28;20036;-76
2024/03/21 05:13:04;;;;;;;17.67;9.70;;;;;;;;;;5054024;28;20039;-76
2024/03/21 05:15:29;;;;;;;18.15;9.52;;;;;;;;;;5036386;28;20036;-76
2024/03/21 05:17:55;;;;;;;18.23;10.60;;;;;;;;;;5034719;28;20041;-75
2024/03/21 05:20:21;;;;;;;16.52;9.52;;;;;;;;;;5034407;28;20069;-75
2024/03/21 05:22:48;;;;;;;18.80;9.32;;;;;;;;;;5034989;28;20086;-75
2024/03/21 05:25:14;;;;;;;17.67;10.15;;;;;;;;;;5038443;28;20050;-75
2024/03/21 05:27:39;;;;;;;18.45;9.93;;;;;;;;;;5054854;28;20044;-75
2024/03/21 05:30:05;;;;;;;15.95;10.00;;;;;;;;;;5054958;28;20068;-75
2024/03/21 05:32:31;;;;;;;21.63;11.00;;;;;;;;;;5054572;28;20063;-80
2024/03/21 05:34:57;;;;;;;18.05;9.40;;;;;;;;;;5037855;28;20535;-76
2024/03/21 05:37:23;;;;;;;16.60;9.27;;;;;;;;;;5054611;28;20049;-76
2024/03/21 05:39:49;;;;;;;17.42;9.50;;;;;;;;;;5054859;28;20040;-76
2024/03/21 05:42:16;;;;;;;12.73;7.55;;;;;;;;;;5056439;28;20532;-77
2024/03/21 05:44:43;;;;;;;15.15;8.07;;;;;;;;;;5058936;28;20044;-76
2024/03/21 05:47:22;;;;;;;20.30;8.70;;;;;;;;;;5057965;28;20475;-75
2024/03/21 05:49:49;;;;;;;14.57;8.55;;;;;;;;;;5058584;28;20044;-76
2024/03/21 05:52:15;;;;;;;12.93;7.82;;;;;;;;;;5047715;28;20033;-76
2024/03/21 05:54:41;;;;;;;17.70;9.20;;;;;;;;;;5048428;28;20445;-76
2024/03/21 05:57:07;;;;;;;14.38;8.88;;;;;;;;;;5046489;28;20041;-76
2024/03/21 05:59:33;;;;;;;18.85;9.80;;;;;;;;;;5048378;28;20047;-76
2024/03/21 06:01:59;;;;;;;19.48;10.10;;;;;;;;;;5047987;28;20045;-76
2024/03/21 06:04:25;;;;;;;18.80;9.52;;;;;;;;;;5046572;28;20628;-76
2024/03/21 06:06:50;;;;;;;20.42;11.07;;;;;;;;;;5038399;28;20539;-76
2024/03/21 06:09:20;;;;;;;24.15;11.90;;;;;;;;;;5053503;28;20041;-77
2024/03/21 06:11:45;;;;;;;23.13;12.05;;;;;;;;;;5053103;28;20033;-76
2024/03/21 06:14:11;;;;;;;25.02;12.55;;;;;;;;;;5048265;28;20107;-76
2024/03/21 06:16:37;;;;;;;29.45;12.38;;;;;;;;;;5046460;28;20040;-75
2024/03/21 06:19:03;;;;;;;23.60;12.43;;;;;;;;;;5056599;28;20128;-76
2024/03/21 06:21:29;;;;;;;25.30;12.32;;;;;;;;;;5057394;28;20066;-76
2024/03/21 06:23:54;;;;;;;31.40;13.55;;;;;;;;;;5057974;28;20040;-76
2024/03/21 06:26:20;;;;;;;21.52;12.93;;;;;;;;;;5056728;28;20040;-76
2024/03/21 06:28:46;;;;;;;27.70;13.38;;;;;;;;;;5057949;28;20083;-77
2024/03/21 06:31:12;;;;;;;24.35;14.02;;;;;;;;;;5057465;28;20120;-76
2024/03/21 06:33:38;;;;;;;28.38;15.50;;;;;;;;;;5057871;28;20044;-76
2024/03/21 06:36:04;;;;;;;28.08;15.65;;;;;;;;;;5037773;28;20048;-76
2024/03/21 06:38:30;;;;;;;25.65;14.98;;;;;;;;;;5036617;28;20041;-76
2024/03/21 06:40:56;;;;;;;27.13;14.73;;;;;;;;;;5035575;28;20448;-76
2024/03/21 06:43:22;;;;;;;25.98;14.02;;;;;;;;;;5035298;28;20045;-76
2024/03/21 06:45:55;;;;;;;28.38;15.18;;;;;;;;;;5035192;28;20488;-76
2024/03/21 06:48:22;;;;;;;27.00;13.48;;;;;;;;;;5035952;28;20044;-80
2024/03/21 06:50:47;;;;;;;24.05;13.23;;;;;;;;;;5035802;28;20086;-77
2024/03/21 06:53:13;;;;;;;24.67;14.40;;;;;;;;;;5035381;28;20045;-75
2024/03/21 06:55:39;;;;;;;27.98;14.30;;;;;;;;;;5037588;28;20037;-76
2024/03/21 06:58:05;;;;;;;32.20;14.95;;;;;;;;;;5037039;28;20045;-75
2024/03/21 07:00:32;;;;;;;26.67;15.25;;;;;;;;;;5037568;28;20045;-77
2024/03/21 07:02:58;;;;;;;27.73;16.05;;;;;;;;;;5021110;28;20045;-75
2024/03/21 07:05:25;;;;;;;26.27;14.80;;;;;;;;;;5036994;28;20045;-77
2024/03/21 07:07:51;;;;;;;29.48;14.65;;;;;;;;;;5036990;28;20371;-76
2024/03/21 07:10:19;;;;;;;31.98;14.52;;;;;;;;;;5036726;28;20063;-76
2024/03/21 07:12:45;;;;;;;23.75;14.45;;;;;;;;;;5037196;28;20471;-77
2024/03/21 07:15:14;;;;;;;28.73;15.25;;;;;;;;;;5036767;28;20059;-76
2024/03/21 07:17:41;;;;;;;27.60;14.15;;;;;;;;;;5021036;28;20033;-76
2024/03/21 07:20:08;;;;;;;23.50;13.25;;;;;;;;;;5036516;28;20460;-76
2024/03/21 07:22:35;;;;;;;23.58;13.40;;;;;;;;;;5036735;28;20041;-77
2024/03/21 07:25:01;;;;;;;22.33;13.82;;;;;;;;;;5043760;28;20394;-76
2024/03/21 07:27:26;;;;;;;22.60;13.60;;;;;;;;;;5033984;28;20040;-77
2024/03/21 07:29:52;;;;;;;17.65;11.65;;;;;;;;;;5055194;28;20051;-76
2024/03/21 07:32:18;;;;;;;19.35;12.00;;;;;;;;;;5052116;28;20087;-76
2024/03/21 07:34:44;;;;;;;23.10;12.27;;;;;;;;;;5055182;28;20045;-76
2024/03/21 07:37:09;;;;;;;22.88;11.68;;;;;;;;;;5054509;28;20051;-77
2024/03/21 07:39:35;;;;;;;18.17;11.05;;;;;;;;;;5053584;28;20486;-77
2024/03/21 07:42:03;;;;;;;17.55;11.15;;;;;;;;;;5053826;28;20298;-76
2024/03/21 07:44:29;;;;;;;15.18;11.00;;;;;;;;;;5053383;28;20049;-76
2024/03/21 07:46:55;;;;;;;15.07;10.30;;;;;;;;;;5036972;28;20056;-77
2024/03/21 07:49:21;;;;;;;17.65;10.18;;;;;;;;;;5052935;28;20051;-77
2024/03/21 07:51:47;;;;;;;14.20;9.57;;;;;;;;;;5053232;28;20127;-77
2024/03/21 07:54:13;;;;;;;16.80;9.63;;;;;;;;;;5052945;28;20040;-76
2024/03/21 07:56:39;;;;;;;18.48;8.77;;;;;;;;;;5052226;28;20512;-76
2024/03/21 07:59:07;;;;;;;43.33;10.48;;;;;;;;;;5052891;28;20049;-76
2024/03/21 08:01:33;;;;;;;22.15;9.73;;;;;;;;;;5053249;28;20044;-76
2024/03/21 08:04:04;;;;;;;47.10;9.77;;;;;;;;;;5051692;28;20051;-76
2024/03/21 08:06:30;;;;;;;21.48;8.82;;;;;;;;;;5054289;28;20062;-77
2024/03/21 08:08:56;;;;;;;14.95;8.55;;;;;;;;;;5055756;28;20049;-77
2024/03/21 08:11:22;;;;;;;22.45;9.60;;;;;;;;;;5066284;28;20079;-76
2024/03/21 08:13:48;;;;;;;74.22;11.40;;;;;;;;;;5037887;28;20441;-77
2024/03/21 08:16:14;;;;;;;49.38;10.20;;;;;;;;;;5053990;28;20044;-77
2024/03/21 08:18:39;;;;;;;31.75;10.45;;;;;;;;;;5053900;28;20136;-77
2024/03/21 08:21:05;;;;;;;48.15;10.20;;;;;;;;;;5053905;28;20064;-76
2024/03/21 08:23:31;;;;;;;49.22;9.38;;;;;;;;;;5054100;28;20395;-75
2024/03/21 08:26:04;;;;;;;35.45;10.80;;;;;;;;;;5054114;28;20413;-76
2024/03/21 08:28:30;;;;;;;26.17;9.65;;;;;;;;;;5053864;28;20041;-76
2024/03/21 08:30:56;;;;;;;30.10;10.35;;;;;;;;;;5054368;28;20041;-77
2024/03/21 08:33:23;;;;;;;20.48;10.35;;;;;;;;;;5053445;28;20390;-77
2024/03/21 08:35:50;;;;;;;80.10;11.13;;;;;;;;;;5052649;28;20054;-76
2024/03/21 08:38:16;;;;;;;51.10;11.20;;;;;;;;;;5054461;28;20041;-75
2024/03/21 08:40:50;;;;;;;105.40;13.73;;;;;;;;;;5054691;28;20390;-75
2024/03/21 08:43:16;;;;;;;36.22;10.95;;;;;;;;;;5055064;28;20037;-80
2024/03/21 08:45:44;;;;;;;23.17;11.43;;;;;;;;;;5055463;28;20360;-76
2024/03/21 08:48:11;;;;;;;29.40;11.52;;;;;;;;;;5054831;28;20086;-77
2024/03/21 08:50:38;;;;;;;23.88;10.82;;;;;;;;;;5054809;28;20048;-76
2024/03/21 08:53:04;;;;;;;42.25;12.65;;;;;;;;;;5054632;28;20066;-75
2024/03/21 08:55:34;;;;;;;37.20;11.68;;;;;;;;;;5055132;28;20085;-75
2024/03/21 08:58:00;;;;;;;43.03;11.32;;;;;;;;;;5055323;28;20040;-74
2024/03/21 09:00:26;;;;;;;49.28;12.63;;;;;;;;;;5054824;28;20044;-75
2024/03/21 09:02:52;;;;;;;21.60;11.60;;;;;;;;;;5055251;28;20498;-75
2024/03/21 09:05:18;;;;;;;82.03;12.50;;;;;;;;;;5054748;28;20149;-75
2024/03/21 09:07:44;;;;;;;24.05;11.23;;;;;;;;;;5038735;28;20052;-76
2024/03/21 09:10:10;;;;;;;19.73;10.63;;;;;;;;;;5038243;28;20049;-75
2024/03/21 09:12:37;;;;;;;25.67;10.98;;;;;;;;;;5038649;28;20045;-76
2024/03/21 09:15:04;;;;;;;18.75;10.57;;;;;;;;;;5055063;28;20082;-75
2024/03/21 09:17:30;;;;;;;18.27;10.45;;;;;;;;;;5054820;28;20058;-76
2024/03/21 09:19:56;;;;;;;17.13;9.77;;;;;;;;;;5054711;28;20064;-75
2024/03/21 09:22:21;;;;;;;15.27;10.07;;;;;;;;;;5054319;28;20071;-75
2024/03/21 09:24:47;;;;;;;16.33;9.60;;;;;;;;;;5055033;28;20040;-76
2024/03/21 09:27:13;;;;;;;13.93;8.48;;;;;;;;;;5054252;28;20037;-75
2024/03/21 09:29:39;;;;;;;16.75;9.88;;;;;;;;;;5054954;28;20119;-75
2024/03/21 09:32:04;;;;;;;12.20;8.32;;;;;;;;;;5054431;28;20380;-75
2024/03/21 09:34:30;;;;;;;14.75;9.13;;;;;;;;;;5054845;28;20045;-75
2024/03/21 09:36:56;;;;;;;12.40;8.15;;;;;;;;;;5054821;28;20048;-76
2024/03/21 09:39:22;;;;;;;14.30;8.68;;;;;;;;;;5054521;28;20041;-75
2024/03/21 09:41:51;;;;;;;21.33;9.95;;;;;;;;;;5054556;28;20044;-79
2024/03/21 09:44:17;;;;;;;14.88;8.80;;;;;;;;;;5054411;28;20032;-76
2024/03/21 09:46:45;;;;;;;16.30;9.20;;;;;;;;;;5054728;28;20050;-76
2024/03/21 09:49:13;;;;;;;14.95;10.13;;;;;;;;;;5054103;28;20403;-76
2024/03/21 09:51:40;;;;;;;17.90;10.30;;;;;;;;;;5054610;28;20045;-75
2024/03/21 09:54:13;;;;;;;19.52;10.70;;;;;;;;;;5054142;28;20440;-75
2024/03/21 09:56:39;;;;;;;18.13;11.25;;;;;;;;;;5054924;28;20047;-75
2024/03/21 09:59:12;;;;;;;17.92;10.35;;;;;;;;;;5054174;28;20048;-74
2024/03/21 10:01:37;;;;;;;16.38;9.50;;;;;;;;;;5054439;28;20047;-75
2024/03/21 10:04:03;;;;;;;17.17;11.10;;;;;;;;;;5054873;28;20044;-75
2024/03/21 10:06:29;;;;;;;15.90;9.90;;;;;;;;;;5054208;28;20040;-76
2024/03/21 10:08:58;;;;;;;16.50;10.15;;;;;;;;;;5038059;28;20052;-75
2024/03/21 10:11:24;;;;;;;15.52;9.70;;;;;;;;;;5054228;28;20425;-75
2024/03/21 10:13:50;;;;;;;17.60;10.30;;;;;;;;;;5054576;28;20128;-75
2024/03/21 10:16:20;;;;;;;16.08;10.10;;;;;;;;;;5037605;28;20036;-76
2024/03/21 10:18:46;;;;;;;15.55;10.20;;;;;;;;;;5054414;28;20052;-75
2024/03/21 10:21:16;;;;;;;14.60;10.35;;;;;;;;;;5053821;28;20540;-75
2024/03/21 10:23:42;;;;;;;17.02;8.88;;;;;;;;;;5054620;28;20043;-75
2024/03/21 10:26:14;;;;;;;15.70;9.68;;;;;;;;;;5053707;28;20036;-76
2024/03/21 10:28:41;;;;;;;14.15;8.85;;;;;;;;;;5057092;28;20036;-75
2024/03/21 10:31:12;;;;;;;10.95;7.70;;;;;;;;;;5057505;28;20504;-76
2024/03/21 10:33:38;;;;;;;15.02;8.27;;;;;;;;;;5057732;28;20372;-76
2024/03/21 10:36:04;;;;;;;11.23;7.03;;;;;;;;;;5057579;28;20131;-75
2024/03/21 10:38:31;;;;;;;11.60;7.00;;;;;;;;;;5057684;28;20040;-76
2024/03/21 10:41:03;;;;;;;12.52;7.47;;;;;;;;;;5057893;28;20528;-75
2024/03/21 10:43:31;;;;;;;12.68;7.55;;;;;;;;;;5057492;28;20044;-76
2024/03/21 10:45:59;;;;;;;11.70;6.70;;;;;;;;;;5057719;28;20372;-75
2024/03/21 10:48:29;;;;;;;10.63;7.32;;;;;;;;;;5057128;28;20044;-75
2024/03/21 10:50:55;;;;;;;13.25;6.50;;;;;;;;;;5057811;28;20044;-75
2024/03/21 10:53:22;;;;;;;10.00;6.57;;;;;;;;;;5057258;28;20067;-75
2024/03/21 10:55:51;;;;;;;7.97;6.03;;;;;;;;;;5057565;28;20533;-76
2024/03/21 10:58:19;;;;;;;11.82;7.05;;;;;;;;;;5056884;28;20036;-75
2024/03/21 11:00:54;;;;;;;11.32;6.80;;;;;;;;;;5057435;28;20048;-76
2024/03/21 11:03:20;;;;;;;13.57;7.20;;;;;;;;;;5040409;28;20041;-75
2024/03/21 11:05:53;;;;;;;11.02;6.45;;;;;;;;;;5057226;28;20088;-75
2024/03/21 11:08:29;;;;;;;9.75;6.03;;;;;;;;;;5056899;28;20098;-75
2024/03/21 11:10:57;;;;;;;10.57;7.00;;;;;;;;;;5041258;28;20176;-76
2024/03/21 11:13:24;;;;;;;10.03;6.77;;;;;;;;;;5040375;28;20047;-75
2024/03/21 11:15:52;;;;;;;9.73;6.20;;;;;;;;;;5051880;28;20041;-75
2024/03/21 11:18:19;;;;;;;11.10;6.70;;;;;;;;;;5033527;28;20044;-75
2024/03/21 11:20:46;;;;;;;8.57;6.28;;;;;;;;;;5025979;28;20045;-76
2024/03/21 11:23:13;;;;;;;9.70;5.80;;;;;;;;;;5055184;28;20040;-76
2024/03/21 11:25:40;;;;;;;8.35;5.75;;;;;;;;;;5055188;28;20048;-75
2024/03/21 11:28:11;;;;;;;8.05;5.53;;;;;;;;;;5054928;28;20493;-75
2024/03/21 11:30:44;;;;;;;8.90;5.25;;;;;;;;;;5038560;28;20043;-74
2024/03/21 11:33:10;;;;;;;7.88;5.15;;;;;;;;;;5054624;28;20493;-76
2024/03/21 11:35:39;;;;;;;8.82;5.03;;;;;;;;;;5054839;28;20040;-76
2024/03/21 11:38:07;;;;;;;9.32;5.32;;;;;;;;;;5054519;28;20432;-75
2024/03/21 11:40:34;;;;;;;8.65;5.10;;;;;;;;;;5053975;28;20048;-75
2024/03/21 11:43:07;;;;;;;7.05;4.82;;;;;;;;;;5055207;28;20469;-75
2024/03/21 11:45:36;;;;;;;7.28;5.18;;;;;;;;;;5054568;28;20040;-75
2024/03/21 11:48:10;;;;;;;7.53;5.18;;;;;;;;;;5055501;28;20048;-75
2024/03/21 11:50:38;;;;;;;7.30;5.53;;;;;;;;;;5055045;28;20046;-74
2024/03/21 11:53:05;;;;;;;6.75;4.88;;;;;;;;;;5055058;28;20127;-75
2024/03/21 11:55:31;;;;;;;7.45;5.03;;;;;;;;;;5054656;28;20045;-75
2024/03/21 11:57:56;;;;;;;7.82;5.40;;;;;;;;;;5054942;28;20070;-75
2024/03/21 12:00:23;;;;;;;7.57;4.13;;;;;;;;;;5054294;28;20360;-75
2024/03/21 12:02:50;;;;;;;7.00;4.72;;;;;;;;;;5054805;28;20044;-75
2024/03/21 12:05:16;;;;;;;9.27;5.07;;;;;;;;;;5037513;28;20047;-75
2024/03/21 12:07:41;;;;;;;6.50;4.55;;;;;;;;;;5054641;28;20044;-75
2024/03/21 12:10:11;;;;;;;7.35;5.10;;;;;;;;;;5054008;28;20162;-74
2024/03/21 12:12:37;;;;;;;13.20;5.85;;;;;;;;;;5054603;28;20101;-75
2024/03/21 12:15:04;;;;;;;8.10;5.13;;;;;;;;;;5037601;28;20048;-75
2024/03/21 12:17:33;;;;;;;8.93;5.80;;;;;;;;;;5053858;28;20036;-75
2024/03/21 12:19:59;;;;;;;7.85;5.50;;;;;;;;;;5055219;28;20051;-75
2024/03/21 12:22:26;;;;;;;7.45;4.85;;;;;;;;;;5054131;28;20044;-75
2024/03/21 12:24:56;;;;;;;10.57;5.53;;;;;;;;;;5055777;28;20041;-75
2024/03/21 12:27:23;;;;;;;9.30;5.43;;;;;;;;;;5055426;28;20066;-75
2024/03/21 12:29:49;;;;;;;8.38;4.90;;;;;;;;;;5055563;28;20058;-75
2024/03/21 12:32:15;;;;;;;7.13;4.63;;;;;;;;;;5055328;28;20081;-74
2024/03/21 12:34:42;;;;;;;7.22;3.80;;;;;;;;;;5055701;28;20036;-75
2024/03/21 12:37:11;;;;;;;7.93;3.85;;;;;;;;;;5055799;28;20033;-75
2024/03/21 12:39:39;;;;;;;;;;;;;;;;;;5055929;28;20036;-76
2024/03/21 12:42:05;;;;;;;7.20;3.78;;;;;;;;;;5038905;28;19926;-74
2024/03/21 12:44:32;;;;;;;9.52;4.85;;;;;;;;;;5055584;28;20425;-75
2024/03/21 12:46:57;;;;;;;6.43;4.25;;;;;;;;;;5038954;28;20463;-74
2024/03/21 12:49:23;;;;;;;7.10;5.13;;;;;;;;;;5055184;28;20063;-75
2024/03/21 12:51:49;;;;;;;9.73;5.38;;;;;;;;;;5054866;28;20047;-75
2024/03/21 12:54:15;;;;;;;9.82;5.40;;;;;;;;;;5054818;28;20123;-74
2024/03/21 12:56:40;;;;;;;10.93;8.10;;;;;;;;;;5055224;28;20056;-76
2024/03/21 12:59:06;;;;;;;11.60;7.45;;;;;;;;;;5054838;28;20033;-76
2024/03/21 13:01:32;;;;;;;12.48;9.40;;;;;;;;;;5055181;28;20074;-75
2024/03/21 13:03:58;;;;;;;14.27;9.73;;;;;;;;;;5055268;28;20395;-74
2024/03/21 13:06:26;;;;;;;12.20;8.93;;;;;;;;;;5054519;28;20425;-75
2024/03/21 13:08:52;;;;;;;12.32;8.05;;;;;;;;;;5055159;28;20051;-75
2024/03/21 13:11:17;;;;;;;11.45;8.40;;;;;;;;;;5054936;28;20044;-75
2024/03/21 13:13:43;;;;;;;10.38;8.18;;;;;;;;;;5054996;28;20407;-74
2024/03/21 13:16:09;;;;;;;13.20;8.90;;;;;;;;;;5054380;28;20036;-75
2024/03/21 13:18:35;;;;;;;11.95;8.63;;;;;;;;;;5054897;28;20056;-75
2024/03/21 13:21:02;;;;;;;13.63;8.68;;;;;;;;;;5054836;28;20127;-74
2024/03/21 13:23:28;;;;;;;14.57;8.70;;;;;;;;;;5054632;28;20048;-75
2024/03/21 13:25:53;;;;;;;13.55;9.35;;;;;;;;;;5054635;28;20102;-75
2024/03/21 13:28:19;;;;;;;14.25;9.45;;;;;;;;;;5054499;28;20505;-75
2024/03/21 13:30:45;;;;;;;11.88;8.63;;;;;;;;;;5054780;28;20465;-75
2024/03/21 13:33:11;;;;;;;12.15;9.07;;;;;;;;;;5054487;28;20127;-75
2024/03/21 13:35:36;;;;;;;16.33;9.23;;;;;;;;;;5034988;28;20087;-76
2024/03/21 13:38:02;;;;;;;12.20;9.40;;;;;;;;;;5034778;28;20045;-75
2024/03/21 13:40:31;;;;;;;14.80;8.98;;;;;;;;;;5034244;28;20049;-75
2024/03/21 13:42:57;;;;;;;12.48;8.43;;;;;;;;;;5034661;28;20115;-75
2024/03/21 13:45:23;;;;;;;14.00;9.27;;;;;;;;;;5033983;28;20047;-75
2024/03/21 13:47:49;;;;;;;16.48;9.07;;;;;;;;;;5034778;28;20082;-75
2024/03/21 13:50:15;;;;;;;12.50;9.45;;;;;;;;;;5034525;28;20045;-75
2024/03/21 13:52:42;;;;;;;13.50;8.40;;;;;;;;;;5034861;28;20048;-75
2024/03/21 13:55:11;;;;;;;13.60;9.32;;;;;;;;;;5017919;28;20098;-75
2024/03/21 13:57:39;;;;;;;13.60;9.70;;;;;;;;;;5034654;28;20041;-74
2024/03/21 14:00:09;;;;;;;17.20;10.50;;;;;;;;;;5034650;28;20037;-74
2024/03/21 14:02:39;;;;;;;14.73;10.48;;;;;;;;;;5035382;28;20424;-75
2024/03/21 14:05:07;;;;;;;16.08;10.63;;;;;;;;;;5038158;28;20055;-75
2024/03/21 14:07:34;;;;;;;13.63;9.57;;;;;;;;;;5038258;28;20426;-74
2024/03/21 14:10:04;;;;;;;15.27;11.13;;;;;;;;;;5038621;28;20037;-75
2024/03/21 14:12:33;;;;;;;15.90;11.10;;;;;;;;;;5037675;28;20059;-74
2024/03/21 14:15:00;;;;;;;17.27;12.77;;;;;;;;;;5037971;28;20033;-74
2024/03/21 14:17:28;;;;;;;16.85;13.95;;;;;;;;;;5037696;28;20033;-75
2024/03/21 14:19:55;;;;;;;18.00;12.15;;;;;;;;;;5038200;28;20088;-75
2024/03/21 14:22:21;;;;;;;15.85;11.75;;;;;;;;;;5037712;28;20044;-75
2024/03/21 14:24:46;;;;;;;14.95;11.20;;;;;;;;;;5021940;28;20048;-75
2024/03/21 14:27:12;;;;;;;13.07;10.70;;;;;;;;;;5057544;28;20044;-76